createdAt,value
2019-02-26T16:22:16.423Z,20.60
2019-02-26T16:25:20.629Z,20.60
2019-02-26T16:28:27.266Z,21.00
2019-02-26T16:31:30.797Z,21.50
2019-02-26T16:34:35.274Z,22.00
2019-02-26T16:37:41.575Z,22.40
2019-02-26T16:40:45.390Z,22.80
2019-02-26T16:43:51.608Z,23.10
2019-02-26T16:46:55.526Z,23.40
2019-02-26T16:50:11.918Z,23.70
2019-02-26T16:53:05.642Z,24.00
2019-02-26T16:56:09.844Z,24.20
2019-02-26T16:59:14.130Z,24.40
2019-02-26T17:02:18.351Z,24.60
2019-02-26T17:05:22.547Z,24.80
2019-02-26T17:08:26.834Z,25.00
2019-02-26T17:11:31.031Z,25.20
2019-02-26T17:14:35.257Z,25.30
2019-02-26T17:17:39.453Z,25.40
2019-02-26T17:20:43.679Z,25.50
2019-02-26T17:23:47.914Z,25.60
2019-02-26T17:26:52.092Z,25.80
2019-02-26T17:29:56.311Z,26.00
2019-02-26T17:33:00.517Z,26.00
2019-02-26T17:36:04.735Z,26.20
2019-02-26T17:39:09.322Z,26.20
2019-02-26T17:42:15.624Z,26.40
2019-02-26T17:45:21.295Z,26.40
2019-02-26T17:48:25.498Z,26.60
2019-02-26T17:51:30.068Z,26.60
2019-02-26T17:54:34.734Z,26.60
2019-02-26T17:57:40.250Z,26.60
2019-02-26T18:00:46.113Z,26.70
2019-02-26T18:03:59.110Z,26.70
2019-02-26T18:07:03.313Z,26.70
2019-02-26T18:10:12.524Z,26.70
2019-02-26T18:13:20.484Z,26.70
2019-02-26T18:16:22.465Z,26.70
2019-02-26T18:19:26.694Z,26.70
2019-02-26T18:22:30.903Z,26.70
2019-02-26T18:25:35.117Z,26.70
2019-02-26T18:28:39.317Z,26.70
2019-02-26T18:31:43.539Z,26.80
2019-02-26T18:34:47.762Z,26.80
2019-02-26T18:37:51.963Z,26.90
2019-02-26T18:40:56.193Z,26.90
2019-02-26T18:44:06.110Z,26.90
2019-02-26T18:47:10.317Z,26.90
2019-02-26T18:50:14.721Z,26.90
2019-02-26T18:53:18.930Z,26.90
2019-02-26T18:56:23.162Z,27.00
2019-02-26T18:59:27.394Z,27.00
2019-02-26T19:02:33.518Z,27.00
2019-02-26T19:05:37.538Z,26.90
2019-02-26T19:08:41.743Z,27.00
2019-02-26T19:11:45.969Z,27.10
2019-02-26T19:14:50.201Z,27.10
2019-02-26T19:17:56.814Z,27.10
2019-02-26T19:21:00.801Z,27.10
2019-02-26T19:24:05.215Z,27.10
2019-02-26T19:27:09.518Z,27.10
2019-02-26T19:30:15.982Z,27.10
2019-02-26T19:33:21.775Z,27.10
2019-02-26T19:36:26.140Z,27.00
2019-02-26T19:39:33.505Z,27.00
2019-02-26T19:42:36.272Z,27.00
2019-02-26T19:45:43.690Z,27.00
2019-02-26T19:48:46.403Z,27.00
2019-02-26T19:51:50.630Z,27.00
2019-02-26T19:54:54.858Z,27.00
2019-02-26T19:58:02.806Z,26.90
2019-02-26T20:01:05.070Z,27.00
2019-02-26T20:04:09.281Z,26.90
2019-02-26T20:07:13.505Z,26.90
2019-02-26T20:10:18.473Z,26.90
2019-02-26T20:13:22.686Z,26.90
2019-02-26T20:16:27.781Z,26.90
2019-02-26T20:19:32.626Z,26.90
2019-02-26T20:22:36.836Z,26.90
2019-02-26T20:25:42.782Z,26.80
2019-02-26T20:28:46.965Z,26.80
2019-02-26T20:31:51.194Z,26.80
2019-02-26T20:34:55.424Z,26.80
2019-02-26T20:37:59.621Z,26.80
2019-02-26T20:41:03.859Z,26.80
2019-02-26T20:44:10.075Z,26.70
2019-02-26T20:47:13.989Z,26.70
